Time;durP1;ratioP1;P1;durP2;ratioP2;P2;SDS_P1;SDS_P2;PMS_P1;PMS_P2;Temp;Humidity;BMP_temperature;BMP_pressure;BME280_temperature;BME280_humidity;BME280_pressure;Samples;Min_cycle;Max_cycle;Signal;HPM_P1;HPM_P2
2021/04/18 00:03:18;;;;;;;88.27;43.38;;;;;;;5.11;90.69;99297.05;4432998;80;21543;-88
2021/04/18 00:09:20;;;;;;;86.87;45.08;;;;;;;5.03;90.60;99297.13;4425091;80;21179;-88
2021/04/18 00:15:21;;;;;;;82.10;42.70;;;;;;;4.95;90.71;99292.55;4399934;80;21830;-89
2021/04/18 00:21:23;;;;;;;87.78;42.70;;;;;;;4.94;90.79;99293.11;4432880;80;21124;-89
2021/04/18 00:27:25;;;;;;;86.22;43.23;;;;;;;4.97;90.78;99282.95;4432554;80;21188;-88
2021/04/18 00:33:26;;;;;;;89.95;43.78;;;;;;;4.76;90.68;99299.80;4413205;80;21137;-88
2021/04/18 00:39:28;;;;;;;82.33;40.78;;;;;;;4.77;91.09;99298.11;4417351;80;21148;-89
2021/04/18 00:45:29;;;;;;;85.42;43.15;;;;;;;4.72;91.04;99290.16;4414633;80;21271;-89
2021/04/18 00:51:30;;;;;;;88.47;42.38;;;;;;;4.83;91.22;99283.77;4411514;80;21133;-88
2021/04/18 00:57:33;;;;;;;88.58;42.95;;;;;;;4.85;91.14;99286.96;4421164;80;21149;-89
2021/04/18 01:03:35;;;;;;;88.27;43.13;;;;;;;4.89;91.14;99289.23;4418535;80;21134;-89
2021/04/18 01:09:36;;;;;;;97.85;44.33;;;;;;;4.97;91.03;99278.88;4423455;79;21128;-86
2021/04/18 01:15:38;;;;;;;87.50;41.70;;;;;;;5.06;91.04;99281.54;4417855;79;21158;-86
2021/04/18 01:21:40;;;;;;;93.07;42.50;;;;;;;4.98;91.13;99279.10;4416664;79;21316;-86
2021/04/18 01:27:52;;;;;;;79.65;40.15;;;;;;;5.00;91.26;99280.93;4456285;79;23019;-86
2021/04/18 01:33:54;;;;;;;83.90;40.15;;;;;;;5.00;90.87;99276.86;4389456;80;21133;-85
2021/04/18 01:39:56;;;;;;;93.03;42.73;;;;;;;5.03;90.79;99271.35;4383993;80;21098;-86
2021/04/18 01:45:58;;;;;;;87.10;39.92;;;;;;;5.07;90.97;99275.78;4382396;80;21614;-86
2021/04/18 01:52:09;;;;;;;81.47;41.53;;;;;;;5.05;90.85;99277.22;4390768;80;21117;-86
2021/04/18 01:58:10;;;;;;;88.72;40.58;;;;;;;5.04;90.94;99272.38;4386711;80;21556;-86
2021/04/18 02:04:26;;;;;;;89.17;41.55;;;;;;;5.12;90.78;99268.77;4436333;78;22251;-85
2021/04/18 02:10:29;;;;;;;82.45;39.88;;;;;;;5.08;90.70;99270.57;4390693;79;21142;-85
2021/04/18 02:16:31;;;;;;;88.70;43.05;;;;;;;5.05;90.80;99269.88;4393218;79;21125;-85
2021/04/18 02:22:35;;;;;;;89.95;42.67;;;;;;;5.07;90.88;99261.41;4393004;79;21186;-86
2021/04/18 02:28:37;;;;;;;94.95;44.73;;;;;;;5.06;90.80;99255.18;4388776;79;21156;-86
2021/04/18 02:34:39;;;;;;;86.37;41.92;;;;;;;5.01;90.81;99255.41;4392932;79;21220;-86
2021/04/18 02:40:41;;;;;;;86.95;42.17;;;;;;;4.98;90.84;99253.33;4392116;79;21195;-86
2021/04/18 02:46:43;;;;;;;150.78;59.90;;;;;;;4.92;90.70;99257.37;4392817;79;21156;-86
2021/04/18 02:52:45;;;;;;;150.45;60.50;;;;;;;4.83;90.96;99254.73;4394694;79;21196;-86
2021/04/18 02:58:47;;;;;;;146.70;61.02;;;;;;;4.72;91.07;99248.13;4390732;77;21173;-86
2021/04/18 03:04:49;;;;;;;137.77;57.00;;;;;;;4.68;91.28;99247.17;4387474;79;21272;-85
2021/04/18 03:10:51;;;;;;;149.18;64.05;;;;;;;4.70;91.28;99236.80;4391088;79;21284;-86
2021/04/18 03:16:54;;;;;;;142.18;59.38;;;;;;;4.79;91.47;99228.03;4392574;79;21158;-86
2021/04/18 03:22:57;;;;;;;152.82;60.08;;;;;;;4.84;91.32;99218.89;4358226;79;21160;-85
2021/04/18 03:28:59;;;;;;;129.07;55.03;;;;;;;4.85;91.41;99217.79;4279199;79;27559;-86
2021/04/18 03:35:05;;;;;;;128.02;51.80;;;;;;;4.74;91.19;99214.66;4244117;82;21196;-85
2021/04/18 03:41:08;;;;;;;128.75;50.88;;;;;;;4.57;91.20;99224.87;4241122;82;21145;-86
2021/04/18 03:47:11;;;;;;;133.72;54.73;;;;;;;4.45;91.45;99220.15;4164946;84;21164;-85
2021/04/18 03:53:14;;;;;;;129.05;55.03;;;;;;;4.58;91.94;99222.38;4123792;85;21207;-86
2021/04/18 03:59:18;;;;;;;136.18;56.63;;;;;;;4.63;91.77;99225.70;4164821;84;21175;-85
2021/04/18 04:05:21;;;;;;;129.40;55.30;;;;;;;4.70;91.74;99225.95;4174756;84;21522;-86
2021/04/18 04:11:23;;;;;;;135.97;57.62;;;;;;;4.80;91.67;99220.70;4160889;84;21225;-85
2021/04/18 04:17:28;;;;;;;136.37;56.60;;;;;;;4.81;91.74;99233.13;4121428;85;21582;-85
2021/04/18 04:23:41;;;;;;;126.30;52.00;;;;;;;4.93;91.85;99235.92;4595011;75;22922;-86
2021/04/18 04:29:43;;;;;;;128.93;51.42;;;;;;;4.89;91.72;99228.78;4493208;78;21129;-85
2021/04/18 04:35:44;;;;;;;116.45;49.40;;;;;;;4.75;91.65;99235.25;4494115;78;21148;-86
2021/04/18 04:41:46;;;;;;;107.10;48.38;;;;;;;4.69;91.64;99237.13;4493269;78;21149;-86
2021/04/18 04:47:47;;;;;;;117.53;50.58;;;;;;;4.59;91.75;99235.60;4496013;78;21274;-87
2021/04/18 04:53:48;;;;;;;114.25;49.85;;;;;;;4.54;91.82;99229.59;4498165;77;21164;-86
2021/04/18 04:59:50;;;;;;;109.05;45.95;;;;;;;4.48;91.97;99230.33;4450225;78;21128;-86
2021/04/18 05:05:53;;;;;;;105.97;47.17;;;;;;;4.58;92.03;99234.58;4443092;79;21205;-86
2021/04/18 05:11:55;;;;;;;109.25;48.78;;;;;;;4.60;92.20;99226.92;4442903;79;21153;-86
2021/04/18 05:17:57;;;;;;;113.25;47.27;;;;;;;4.69;92.44;99226.28;4430832;78;21165;-85
2021/04/18 05:23:59;;;;;;;89.77;42.83;;;;;;;4.87;92.44;99231.80;4447301;78;21593;-85
2021/04/18 05:30:00;;;;;;;85.22;38.28;;;;;;;5.03;92.43;99242.86;4409150;78;21165;-85
2021/04/18 05:36:04;;;;;;;86.42;40.15;;;;;;;5.17;92.21;99236.59;4402452;78;21133;-85
2021/04/18 05:42:06;;;;;;;81.85;37.25;;;;;;;5.06;92.02;99244.91;4451294;78;21161;-86
2021/04/18 05:48:08;;;;;;;81.25;39.25;;;;;;;5.21;92.20;99240.22;4409088;78;25346;-86
2021/04/18 05:54:10;;;;;;;86.78;40.35;;;;;;;5.26;91.84;99246.80;4162360;84;21613;-89
2021/04/18 06:00:13;;;;;;;65.30;33.15;;;;;;;5.30;91.84;99244.44;4070897;86;21152;-90
2021/04/18 06:06:14;;;;;;;67.62;32.63;;;;;;;5.37;91.75;99245.25;4060216;86;21180;-85
2021/04/18 06:12:15;;;;;;;69.95;32.45;;;;;;;5.46;91.75;99247.31;4011534;87;21181;-86
2021/04/18 06:18:17;;;;;;;62.05;31.40;;;;;;;5.61;91.58;99252.90;4037065;87;21205;-85
2021/04/18 06:24:18;;;;;;;58.15;28.25;;;;;;;5.56;91.29;99258.54;3980437;89;21298;-86
2021/04/18 06:30:21;;;;;;;61.88;29.82;;;;;;;5.61;91.31;99261.05;4071541;87;21189;-86
2021/04/18 06:36:22;;;;;;;54.63;28.70;;;;;;;5.75;91.58;99265.61;4102034;84;27563;-85
2021/04/18 06:42:24;;;;;;;53.83;25.72;;;;;;;5.87;91.34;99264.29;4110649;86;21158;-86
2021/04/18 06:48:27;;;;;;;47.60;25.77;;;;;;;5.85;91.13;99264.41;4097264;86;21186;-85
2021/04/18 06:54:29;;;;;;;45.63;26.30;;;;;;;5.96;91.13;99257.41;4098183;87;21194;-85
2021/04/18 07:00:31;;;;;;;53.85;28.38;;;;;;;6.14;91.37;99262.30;4100714;86;21719;-86
2021/04/18 07:06:51;;;;;;;54.13;25.37;;;;;;;6.29;91.24;99258.11;4095850;86;21203;-85
2021/04/18 07:12:53;;;;;;;50.05;26.02;;;;;;;6.39;91.08;99265.24;4106570;86;21172;-86
2021/04/18 07:18:55;;;;;;;48.50;25.92;;;;;;;6.44;90.80;99268.30;4091905;84;21205;-85
2021/04/18 07:31:33;;;;;;;51.15;26.07;;;;;;;6.58;90.28;99274.17;4576399;77;23008;-85
2021/04/18 07:37:35;;;;;;;43.55;23.80;;;;;;;6.57;90.29;99274.52;4506241;77;21428;-85
2021/04/18 07:43:37;;;;;;;45.05;23.60;;;;;;;6.52;90.09;99275.55;4511452;77;21304;-87
2021/04/18 07:49:38;;;;;;;41.23;22.10;;;;;;;6.54;89.93;99280.09;4501184;77;21927;-85
2021/04/18 07:55:40;;;;;;;47.53;23.75;;;;;;;6.70;90.19;99278.27;4503759;77;21118;-85
2021/04/18 08:01:42;;;;;;;44.10;23.12;;;;;;;6.78;89.69;99277.31;4519675;77;21152;-85
2021/04/18 08:08:06;;;;;;;43.58;21.85;;;;;;;6.74;89.23;99273.71;4495765;77;21107;-85
2021/04/18 08:14:18;;;;;;;39.88;20.30;;;;;;;7.00;89.52;99265.94;4518188;77;21185;-85
2021/04/18 08:20:34;;;;;;;43.28;20.23;;;;;;;7.19;88.88;99268.83;4509546;77;21265;-86
2021/04/18 08:26:35;;;;;;;40.00;20.43;;;;;;;7.34;88.69;99270.83;4528329;77;21285;-86
2021/04/18 08:32:48;;;;;;;38.95;20.92;;;;;;;7.42;88.05;99271.81;4522769;77;21147;-85
2021/04/18 08:39:07;;;;;;;33.48;19.25;;;;;;;7.57;88.57;99265.60;4518048;78;21148;-85
2021/04/18 08:45:09;;;;;;;38.45;20.40;;;;;;;7.75;87.74;99264.93;4534883;77;21161;-85
2021/04/18 08:51:11;;;;;;;34.45;19.25;;;;;;;7.92;87.38;99265.95;4367933;80;21177;-86
2021/04/18 08:57:23;;;;;;;32.67;19.32;;;;;;;8.13;87.18;99265.70;4377952;80;21614;-86
2021/04/18 09:03:24;;;;;;;31.55;18.75;;;;;;;8.66;87.00;99256.88;4376514;81;21164;-84
2021/04/18 09:09:27;;;;;;;26.90;15.45;;;;;;;9.45;85.90;99243.14;4370097;81;21299;-86
2021/04/18 09:15:32;;;;;;;23.12;12.70;;;;;;;9.77;84.87;99247.28;4306852;82;21626;-87
2021/04/18 09:21:34;;;;;;;21.70;12.33;;;;;;;9.63;82.79;99238.02;4359940;81;21158;-88
2021/04/18 09:27:40;;;;;;;22.85;13.28;;;;;;;9.50;81.70;99236.83;4367486;80;21150;-88
2021/04/18 09:33:42;;;;;;;27.22;15.90;;;;;;;9.46;82.69;99232.42;4310924;81;21162;-87
2021/04/18 09:39:45;;;;;;;25.97;14.60;;;;;;;9.42;82.64;99226.91;4286700;83;21599;-88
2021/04/18 09:46:00;;;;;;;22.20;13.55;;;;;;;9.95;81.90;99222.39;4236695;83;21180;-88
2021/04/18 09:52:02;;;;;;;23.35;14.63;;;;;;;10.07;81.30;99227.69;4261177;83;21285;-89
2021/04/18 09:58:04;;;;;;;23.07;14.28;;;;;;;9.93;80.80;99230.76;4271992;81;21167;-89
2021/04/18 10:04:23;;;;;;;22.10;13.58;;;;;;;9.97;80.89;99227.49;4241735;83;21170;-89
2021/04/18 10:10:32;;;;;;;25.60;13.58;;;;;;;10.19;80.13;99223.98;4245776;83;21799;-89
2021/04/18 10:16:41;;;;;;;16.70;11.75;;;;;;;10.73;79.69;99223.84;4281828;83;21153;-89
2021/04/18 10:23:03;;;;;;;23.50;13.45;;;;;;;10.62;77.25;99222.09;4251934;83;21160;-89
2021/04/18 10:29:04;;;;;;;22.87;13.80;;;;;;;10.73;77.48;99221.67;4156404;83;34516;-86
2021/04/18 10:35:07;;;;;;;22.67;14.58;;;;;;;10.71;77.04;99215.20;4078079;86;21199;-85
2021/04/18 10:41:10;;;;;;;18.90;12.53;;;;;;;10.79;75.10;99216.87;4117074;86;21164;-86
2021/04/18 10:47:16;;;;;;;18.82;12.37;;;;;;;10.75;76.23;99219.36;4117417;86;21211;-85
2021/04/18 10:53:15;;;;;;;20.60;13.28;;;;;;;10.38;74.18;99212.36;4161722;85;21147;-86
2021/04/18 10:59:18;;;;;;;22.10;13.38;;;;;;;10.35;75.05;99215.06;4100408;86;21366;-85
2021/04/18 11:05:21;;;;;;;23.42;13.98;;;;;;;10.27;74.73;99217.48;4074549;86;21894;-86
2021/04/18 11:11:24;;;;;;;25.12;15.50;;;;;;;10.30;74.27;99209.33;4063111;87;21622;-85
2021/04/18 11:17:27;;;;;;;21.48;13.58;;;;;;;10.32;73.51;99215.80;4110222;85;21163;-88
2021/04/18 11:23:38;;;;;;;22.80;12.95;;;;;;;10.46;73.39;99214.65;4039327;87;21172;-89
2021/04/18 11:29:42;;;;;;;24.05;14.73;;;;;;;10.68;72.55;99215.17;4091387;87;21174;-89
2021/04/18 11:35:43;;;;;;;26.70;15.65;;;;;;;10.79;71.29;99215.50;4103986;86;21473;-89
2021/04/18 11:41:45;;;;;;;27.10;16.87;;;;;;;10.69;71.42;99216.17;4098380;87;21174;-90
2021/04/18 11:47:47;;;;;;;27.55;16.75;;;;;;;10.41;71.54;99216.33;4111345;87;21226;-90
2021/04/18 11:53:49;;;;;;;26.97;16.50;;;;;;;10.24;71.83;99222.31;4099028;87;21330;-89
2021/04/18 11:59:50;;;;;;;29.52;17.10;;;;;;;10.19;71.59;99222.63;4102775;85;21177;-90
2021/04/18 12:05:54;;;;;;;26.07;16.17;;;;;;;10.16;71.09;99215.95;4105737;87;21680;-89
2021/04/18 12:11:56;;;;;;;24.37;15.88;;;;;;;10.15;71.66;99220.42;4121969;85;21166;-90
2021/04/18 12:17:57;;;;;;;29.65;16.73;;;;;;;10.21;70.13;99218.34;4114139;85;21199;-88
2021/04/18 12:23:59;;;;;;;32.08;19.25;;;;;;;10.25;70.69;99217.84;4115157;86;21192;-91
2021/04/18 12:30:01;;;;;;;28.75;18.32;;;;;;;10.33;70.80;99220.91;4079512;86;21222;-91
2021/04/18 12:36:05;;;;;;;32.15;18.52;;;;;;;10.24;70.88;99211.38;4218304;84;21215;-91
2021/04/18 12:42:06;;;;;;;33.83;18.27;;;;;;;10.20;70.23;99214.05;4256747;83;21634;-89
2021/04/18 12:48:08;;;;;;;34.90;19.50;;;;;;;10.06;70.42;99212.98;4213300;83;21209;-91
2021/04/18 12:54:10;;;;;;;35.78;20.02;;;;;;;9.99;70.70;99212.88;4230729;83;21177;-89
2021/04/18 13:00:14;;;;;;;39.53;21.33;;;;;;;9.95;70.05;99212.02;4229352;83;21790;-90
2021/04/18 13:06:15;;;;;;;40.50;21.52;;;;;;;9.84;69.63;99213.21;4225894;84;21980;-89
2021/04/18 13:12:16;;;;;;;39.35;20.85;;;;;;;9.83;69.86;99213.01;4234107;83;21471;-90
2021/04/18 13:18:18;;;;;;;40.85;20.72;;;;;;;9.73;69.81;99213.60;4243258;83;21173;-89
2021/04/18 13:24:20;;;;;;;35.00;19.95;;;;;;;9.76;70.11;99210.14;4236059;83;21185;-88
2021/04/18 13:30:23;;;;;;;38.78;21.40;;;;;;;9.80;70.00;99206.91;4224513;83;21177;-90
2021/04/18 13:36:25;;;;;;;33.78;20.10;;;;;;;9.91;69.33;99205.71;4220715;83;21197;-90
2021/04/18 13:42:26;;;;;;;35.60;20.08;;;;;;;9.83;69.53;99207.55;4236954;82;21612;-89
2021/04/18 13:48:28;;;;;;;34.80;19.45;;;;;;;9.79;69.60;99201.20;4228715;84;21160;-90
2021/04/18 13:54:29;;;;;;;34.25;21.30;;;;;;;9.77;69.41;99212.30;4235005;84;21163;-90
2021/04/18 14:00:32;;;;;;;39.50;23.60;;;;;;;9.69;68.91;99204.56;4246554;83;21161;-89
2021/04/18 14:06:34;;;;;;;35.90;21.25;;;;;;;9.57;69.71;99204.71;4249988;83;21635;-89
2021/04/18 14:12:35;;;;;;;32.88;19.42;;;;;;;9.55;69.26;99200.98;4229328;84;21139;-88
2021/04/18 14:18:37;;;;;;;35.48;21.57;;;;;;;9.47;69.67;99202.00;4248152;84;21191;-88
2021/04/18 14:24:40;;;;;;;35.43;20.52;;;;;;;9.50;69.85;99199.13;4250491;83;21150;-90
2021/04/18 14:30:41;;;;;;;33.53;20.75;;;;;;;9.48;69.58;99202.80;4252854;82;21552;-90
2021/04/18 14:36:43;;;;;;;34.75;20.25;;;;;;;9.38;69.69;99202.80;4218050;84;21599;-90
2021/04/18 14:42:44;;;;;;;38.17;22.30;;;;;;;9.32;69.94;99208.92;4216591;82;21198;-90
2021/04/18 14:48:46;;;;;;;42.65;24.45;;;;;;;9.25;70.06;99201.41;4218532;84;21624;-91
2021/04/18 14:54:47;;;;;;;36.75;20.55;;;;;;;9.17;70.11;99209.23;4221555;84;21162;-90
2021/04/18 15:00:49;;;;;;;32.75;20.40;;;;;;;9.16;70.16;99202.77;4227257;83;21178;-92
2021/04/18 15:06:51;;;;;;;42.25;23.80;;;;;;;9.18;70.28;99208.08;4205869;83;21745;-88
2021/04/18 15:12:52;;;;;;;37.33;22.02;;;;;;;9.14;70.04;99208.59;4222409;83;21159;-88
2021/04/18 15:18:54;;;;;;;58.70;33.63;;;;;;;9.08;70.21;99211.97;4222685;83;21308;-88
2021/04/18 15:24:55;;;;;;;35.45;22.58;;;;;;;9.06;70.48;99208.80;4197890;84;21150;-89
2021/04/18 15:30:57;;;;;;;38.05;23.07;;;;;;;9.08;70.54;99210.61;4227373;84;21758;-90
2021/04/18 15:36:58;;;;;;;41.95;24.35;;;;;;;9.12;70.45;99214.19;4210003;83;21139;-89
2021/04/18 15:42:59;;;;;;;39.50;22.75;;;;;;;9.10;70.73;99216.48;4201980;82;21296;-89
2021/04/18 15:49:01;;;;;;;39.67;21.65;;;;;;;9.10;70.90;99213.18;4232707;83;21198;-89
2021/04/18 15:55:04;;;;;;;48.78;25.37;;;;;;;9.04;70.72;99213.83;4229720;82;21327;-89
2021/04/18 16:01:07;;;;;;;48.58;25.32;;;;;;;8.98;70.80;99218.80;4238190;83;21183;-90
2021/04/18 16:07:10;;;;;;;30.82;19.90;;;;;;;8.95;70.88;99219.52;4219966;82;21181;-89
2021/04/18 16:13:12;;;;;;;32.45;20.17;;;;;;;8.95;70.82;99215.98;4219606;84;21310;-90
2021/04/18 16:19:13;;;;;;;34.50;21.37;;;;;;;8.88;70.94;99211.75;4178430;83;21847;-88
2021/04/18 16:25:15;;;;;;;30.08;19.98;;;;;;;8.91;71.03;99221.36;4088887;87;21192;-89
2021/04/18 16:31:16;;;;;;;29.80;18.90;;;;;;;8.85;71.07;99225.53;4095890;85;21357;-86
2021/04/18 16:37:18;;;;;;;29.15;17.75;;;;;;;8.80;71.27;99227.77;4091463;85;21605;-86
2021/04/18 16:43:20;;;;;;;33.18;18.87;;;;;;;8.80;71.28;99229.13;4088987;85;21202;-87
2021/04/18 16:49:22;;;;;;;36.93;20.12;;;;;;;8.81;71.38;99230.70;4092017;85;21184;-87
2021/04/18 16:55:23;;;;;;;32.28;20.27;;;;;;;8.83;71.35;99224.31;4090515;85;21174;-86
2021/04/18 17:01:27;;;;;;;35.13;19.65;;;;;;;8.82;71.19;99230.91;4094122;85;21668;-86
2021/04/18 17:07:28;;;;;;;28.62;18.55;;;;;;;8.82;71.33;99239.09;4089261;85;21195;-87
2021/04/18 17:13:30;;;;;;;46.23;29.02;;;;;;;8.73;71.32;99246.70;4089411;85;21210;-87
2021/04/18 17:19:32;;;;;;;44.50;26.20;;;;;;;8.62;71.42;99251.12;4091397;85;21152;-86
2021/04/18 17:25:33;;;;;;;45.20;26.33;;;;;;;8.52;71.70;99262.01;4072873;85;21191;-86
2021/04/18 17:31:35;;;;;;;43.30;25.20;;;;;;;8.55;71.97;99264.03;4091828;84;21225;-86
2021/04/18 17:37:37;;;;;;;49.75;26.90;;;;;;;8.52;72.09;99267.47;4093064;85;21730;-86
2021/04/18 17:43:39;;;;;;;47.43;27.50;;;;;;;8.48;72.22;99269.34;4089794;85;21214;-85
2021/04/18 17:49:47;;;;;;;73.97;39.83;;;;;;;8.43;72.28;99277.78;4086897;85;21710;-86
2021/04/18 17:55:48;;;;;;;81.22;39.73;;;;;;;8.24;72.64;99287.84;4094723;85;21204;-86
2021/04/18 18:01:51;;;;;;;51.75;28.55;;;;;;;8.18;72.88;99284.54;4092802;85;21214;-86
2021/04/18 18:07:54;;;;;;;51.88;26.85;;;;;;;8.13;73.47;99287.52;4090767;85;21712;-85
2021/04/18 18:13:57;;;;;;;44.77;26.33;;;;;;;8.14;73.78;99285.59;4090336;85;21166;-86
2021/04/18 18:19:58;;;;;;;101.53;46.40;;;;;;;8.07;73.84;99282.67;4093183;85;21211;-86
2021/04/18 18:26:03;;;;;;;95.70;44.77;;;;;;;8.00;73.99;99284.67;4086856;85;21703;-86
2021/04/18 18:32:07;;;;;;;104.85;49.83;;;;;;;7.91;74.15;99284.03;4100033;84;21183;-85
2021/04/18 18:38:09;;;;;;;116.03;50.20;;;;;;;7.82;74.63;99283.41;4113847;84;21823;-86
2021/04/18 18:44:10;;;;;;;109.25;50.35;;;;;;;7.76;74.72;99286.17;4116733;84;21240;-86
2021/04/18 18:50:16;;;;;;;125.07;55.92;;;;;;;7.73;75.16;99289.59;4121876;84;21211;-85
2021/04/18 18:56:21;;;;;;;90.83;46.20;;;;;;;7.77;75.59;99289.11;4119376;84;21565;-86
2021/04/18 19:02:22;;;;;;;109.05;46.55;;;;;;;7.55;75.09;99289.11;4120944;84;21341;-85
2021/04/18 19:08:24;;;;;;;85.35;43.83;;;;;;;7.47;75.80;99288.69;4243310;82;21182;-86
2021/04/18 19:14:26;;;;;;;62.73;36.05;;;;;;;7.47;76.02;99286.55;4249441;82;21173;-86
2021/04/18 19:20:28;;;;;;;48.48;28.95;;;;;;;7.42;76.29;99292.24;4242642;82;21182;-87
2021/04/18 19:26:29;;;;;;;54.95;31.02;;;;;;;7.39;76.60;99286.13;4231598;82;21181;-88
2021/04/18 19:32:31;;;;;;;76.25;40.80;;;;;;;7.38;76.72;99281.80;4196608;82;21194;-88
2021/04/18 19:38:34;;;;;;;79.03;41.68;;;;;;;7.27;77.00;99288.31;4211099;83;21591;-88
2021/04/18 19:44:36;;;;;;;73.95;41.60;;;;;;;7.36;77.39;99289.55;4228260;83;21168;-88
2021/04/18 19:50:38;;;;;;;75.83;39.92;;;;;;;7.27;77.33;99289.68;4236995;83;21140;-88
2021/04/18 19:56:40;;;;;;;79.45;41.35;;;;;;;7.12;77.53;99282.81;4264366;83;21170;-89
2021/04/18 20:02:41;;;;;;;79.00;42.45;;;;;;;7.08;77.40;99277.84;4239779;83;21138;-88
2021/04/18 20:08:43;;;;;;;79.22;40.83;;;;;;;6.91;77.84;99282.17;4241531;83;21190;-89
2021/04/18 20:14:45;;;;;;;91.45;45.15;;;;;;;6.89;78.33;99278.44;4222726;84;21195;-88
2021/04/18 20:20:47;;;;;;;64.37;35.23;;;;;;;6.88;78.38;99281.50;4193277;85;21187;-87
2021/04/18 20:26:48;;;;;;;81.85;42.67;;;;;;;6.71;78.17;99274.40;4193438;85;21161;-88
2021/04/18 20:32:53;;;;;;;84.45;43.85;;;;;;;6.71;78.75;99264.08;4201249;83;21200;-87
2021/04/18 20:38:55;;;;;;;70.87;37.35;;;;;;;6.62;78.82;99264.22;4132691;86;21187;-88
2021/04/18 20:44:57;;;;;;;72.50;39.03;;;;;;;6.51;79.21;99251.41;4137209;86;21170;-87
2021/04/18 20:50:59;;;;;;;87.55;46.00;;;;;;;6.53;79.56;99255.95;4132684;86;21170;-88
2021/04/18 20:57:01;;;;;;;92.27;48.25;;;;;;;6.50;79.54;99252.56;4143829;86;21158;-87
2021/04/18 21:03:03;;;;;;;93.22;47.50;;;;;;;6.49;79.91;99255.83;4084541;87;21670;-88
2021/04/18 21:09:05;;;;;;;88.15;46.42;;;;;;;6.58;79.90;99267.97;4040157;87;21722;-88
2021/04/18 21:15:09;;;;;;;81.10;42.85;;;;;;;6.47;79.94;99264.13;4076792;86;21306;-88
2021/04/18 21:21:11;;;;;;;71.22;38.48;;;;;;;6.46;80.15;99259.23;4101551;85;21186;-88
2021/04/18 21:27:13;;;;;;;74.37;41.05;;;;;;;6.43;80.30;99259.92;4092482;85;21319;-87
2021/04/18 21:33:14;;;;;;;70.10;38.38;;;;;;;6.42;80.38;99256.98;4085534;86;21226;-88
2021/04/18 21:39:16;;;;;;;81.90;42.03;;;;;;;6.39;80.45;99256.28;4128015;85;21175;-87
2021/04/18 21:45:18;;;;;;;95.60;49.83;;;;;;;6.37;80.39;99254.49;4108660;85;21167;-87
2021/04/18 21:51:19;;;;;;;103.02;53.92;;;;;;;6.38;80.51;99258.78;4072845;85;21154;-87
2021/04/18 21:57:21;;;;;;;107.97;56.53;;;;;;;6.13;80.11;99252.56;4097327;85;21174;-87
2021/04/18 22:03:23;;;;;;;112.88;56.98;;;;;;;5.93;80.63;99254.81;4098034;85;21139;-87
2021/04/18 22:09:24;;;;;;;109.63;55.00;;;;;;;5.85;80.59;99259.78;4090443;86;21204;-87
2021/04/18 22:15:26;;;;;;;106.43;53.52;;;;;;;5.66;80.91;99250.53;4096628;86;21169;-87
2021/04/18 22:21:27;;;;;;;109.57;52.75;;;;;;;5.49;80.73;99248.00;4095497;86;21566;-88
2021/04/18 22:27:31;;;;;;;98.92;51.20;;;;;;;5.27;80.93;99255.96;4173758;84;21717;-86
2021/04/18 22:33:32;;;;;;;93.25;50.23;;;;;;;5.17;81.24;99252.29;4050659;86;21202;-87
2021/04/18 22:39:34;;;;;;;91.22;48.78;;;;;;;4.95;81.22;99258.06;4045647;88;21171;-87
2021/04/18 22:45:35;;;;;;;93.15;48.02;;;;;;;4.77;81.24;99253.91;4048109;86;21212;-87
2021/04/18 22:51:37;;;;;;;81.12;42.88;;;;;;;4.66;81.67;99241.86;4045000;86;21160;-87
2021/04/18 22:57:39;;;;;;;96.30;50.20;;;;;;;4.62;81.72;99251.77;4048423;86;21355;-87
2021/04/18 23:03:40;;;;;;;94.30;48.28;;;;;;;4.60;82.28;99246.67;4036660;88;21645;-87
2021/04/18 23:09:42;;;;;;;86.42;46.77;;;;;;;4.53;82.37;99242.90;4032151;86;21333;-87
2021/04/18 23:15:43;;;;;;;86.75;44.93;;;;;;;4.43;82.27;99235.17;4040306;86;21138;-87
2021/04/18 23:21:45;;;;;;;89.60;47.25;;;;;;;4.42;82.25;99224.07;4023496;88;21867;-88
2021/04/18 23:27:46;;;;;;;97.70;49.38;;;;;;;4.32;82.35;99219.05;4027388;86;21321;-87
2021/04/18 23:33:48;;;;;;;88.70;47.40;;;;;;;4.27;82.54;99229.52;4032972;88;21200;-88
2021/04/18 23:39:50;;;;;;;89.75;46.60;;;;;;;4.13;82.78;99219.48;4018796;88;21229;-87
2021/04/18 23:45:51;;;;;;;101.02;51.70;;;;;;;4.11;82.74;99216.84;4159438;85;21116;-87
2021/04/18 23:51:53;;;;;;;86.15;44.60;;;;;;;4.17;83.22;99214.18;4150397;85;21152;-86
2021/04/18 23:57:54;;;;;;;94.83;49.85;;;;;;;3.99;82.72;99216.76;4170075;85;21161;-87
